Relevés horaires Grono (Suisse)


Relevés horaires à Grono - Lundi 10 Sept. 2018
Heure UTC1 Température [°C] Vent [km/h] Hum. [%] Pres.4 [hPa] Visi. [Km] Nébu. [octa] Préc.5 [mm] Cond.
2m. Res. Ros. Dir.2 Vit. Moy. Raf.3
23:00 16.4 16.4 14.7 N 7.4 -- -- 90 1024.6 -- -- -- --
22:00 17.1 17.1 15.8 NNO 5.6 -- -- 92 1024.3 -- -- -- --
21:00 17.8 17.8 16.6 N 3.7 -- 9.3 93 1024(2.2/3h) -- -- -- --
20:00 19.0 19.0 17.4 N 5.6 -- -- 90 1023.3 -- -- -- --
19:00 19.3 19.3 17.9 N 3.7 -- -- 92 1022.4 -- -- -- --
18:00 20.5 20.5 18.6 N 5.6 -- 14.8 89 1021.3(0.9/3h) -- -- 0/12h
--
17:00 22.9 22.9 19.0 N 3.7 -- -- 79 1020.2 -- -- -- --
16:00 24.2 24.2 19.2 NNO 5.6 -- -- 74 1019.9 -- -- -- --
15:00 26.0 26.0 19.4 N 9.3 -- 14.8 67 1019.6(-0.4/3h) -- -- -- --
14:00 26.8 26.8 17.3 S 3.7 -- -- 56 1019.5 -- -- -- --
13:00 26.9 26.9 16.5 SE 5.6 -- -- 53 1019.7 -- -- -- --
12:00 26.6 26.6 17.0 SSE 9.3 -- 18.5 56 1020(-1.6/3h) -- -- 0/6h
--
11:00 25.2 25.2 16.3 S 7.4 -- -- 58 1020.8 -- -- -- --
10:00 23.3 23.3 14.9 S 5.6 -- -- 59 1021.3 -- -- -- --
09:00 20.8 20.8 16.5 SSE 1.9 -- 13.0 76 1022.4(-0.6/3h) -- -- -- --
08:00 16.3 16.3 15.2 ENE 1.9 -- -- 93 1022.9 -- -- -- --
07:00 15.8 15.8 14.9 NNE 3.7 -- -- 94 1023.4 -- -- -- --
06:00 15.7 15.7 14.9 N 3.7 -- 9.3 95 1023.7(1.2/3h) -- -- 0/12h
0/24h
--
05:00 15.1 15.1 14.5 N 3.7 -- -- 96 1022.9 -- -- -- --
04:00 15.1 15.1 14.6 N 1.9 -- -- 97 1022.7 -- -- -- --
03:00 15.3 15.3 14.8 NNE 3.7 -- 9.3 97 1022.5(0.0/3h) -- -- -- --
02:00 15.9 15.9 15.4 N 5.6 -- -- 97 1022.6 -- -- -- --
01:00 15.9 15.9 15.4 N 5.6 -- -- 97 1022.7 -- -- -- --
00:00 16.5 16.5 15.9 N 1.9 -- 9.3 96 1022.4(0.0/3h) -- -- 0/6h
--

1 Coordinated Universal Time. Actuellement il est 20:00 locale et 18:00 UTC.

2 Le vent souffle depuis la direction indiquée vers la direction oposée.

3 Les rafales max. sont disponible 40 min après l'heure du relevé.

4 Pour les stations d'altitude (plus de 600m) le géopotentiel du niveau le plus proche de la pression obligatoire est indiqué.

5 Les stations disposant d'un diffuseur peuvent indiquer "trace". Cela signifie que des précipitations ont touchés le sol mais que la quantité est inférieure à 0.1 mm.

Récapitulatif de la journée
Température [°C] Vent [km/h] Ensoleillement4 [h] Precipitations totale5 [mm] Pression [Hpa]
Min1 Max.2 Moy.3 Max. Min Max.
14.8 27.5 0 18.5 6 h 36 min 0 1019.5 1024.6

1 Température minimale relevée entre 18:00 UTC la veille et 18:00 UTC le jour donné.

2 Température maximale relevée entre 06:00 UTC le jour donné et 06:00 UTC le lendemain.

3 Vent moyen de la journée basé sur les relevés horaires.

4 Ensoleillement en heures relevé entre 06:00 UTC la veille et 06:00 UTC le jour donné.

5 Précipitations totales tombées entre 06:00 UTC la jour donné et 06:00 UTC le lendemain.

Graphiques horaires